createdAt,value
2022-12-29T00:00:17.338Z,4.43
2022-12-29T00:02:44.794Z,6.20
2022-12-29T00:05:11.359Z,5.65
2022-12-29T00:07:37.883Z,5.88
2022-12-29T00:10:04.967Z,7.10
2022-12-29T00:12:51.380Z,9.27
2022-12-29T00:15:36.589Z,6.03
2022-12-29T00:18:03.198Z,3.53
2022-12-29T00:20:48.289Z,4.95
2022-12-29T00:23:33.511Z,5.40
2022-12-29T00:26:23.110Z,6.68
2022-12-29T00:29:09.542Z,3.72
2022-12-29T00:31:54.587Z,6.88
2022-12-29T00:34:39.572Z,4.05
2022-12-29T00:37:06.420Z,7.38
2022-12-29T00:39:52.318Z,3.88
2022-12-29T00:42:37.647Z,4.22
2022-12-29T00:45:04.393Z,5.00
2022-12-29T00:47:30.855Z,7.30
2022-12-29T00:49:57.325Z,13.95
2022-12-29T00:52:23.815Z,12.13
2022-12-29T00:54:50.250Z,12.05
2022-12-29T00:57:17.123Z,7.70
2022-12-29T00:59:44.658Z,6.07
2022-12-29T01:02:11.891Z,6.68
2022-12-29T01:04:40.694Z,7.95
2022-12-29T01:07:08.143Z,5.65
2022-12-29T01:09:53.325Z,4.35
2022-12-29T01:12:41.532Z,3.72
2022-12-29T01:15:10.364Z,3.25
2022-12-29T01:17:39.461Z,4.53
2022-12-29T01:20:08.677Z,3.65
2022-12-29T01:22:35.196Z,4.75
2022-12-29T01:25:04.983Z,3.15
2022-12-29T01:27:31.559Z,3.63
2022-12-29T01:29:59.141Z,3.42
2022-12-29T01:32:25.647Z,4.95
2022-12-29T01:34:52.146Z,4.82
2022-12-29T01:37:18.653Z,3.78
2022-12-29T01:39:45.105Z,5.07
2022-12-29T01:42:18.353Z,3.47
2022-12-29T01:44:51.575Z,3.10
2022-12-29T01:47:56.513Z,8.88
2022-12-29T01:50:29.638Z,4.18
2022-12-29T01:53:00.561Z,4.43
2022-12-29T01:55:29.757Z,4.07
2022-12-29T01:58:00.959Z,8.50
2022-12-29T02:00:27.797Z,6.05
2022-12-29T02:02:55.433Z,8.45
2022-12-29T02:05:33.269Z,19.95
2022-12-29T02:08:01.247Z,16.90
2022-12-29T02:10:30.863Z,13.77
2022-12-29T02:12:57.833Z,14.52
2022-12-29T02:15:36.913Z,20.15
2022-12-29T02:18:21.952Z,17.17
2022-12-29T02:20:54.603Z,15.50
2022-12-29T02:23:49.376Z,10.87
2022-12-29T02:26:27.391Z,5.55
2022-12-29T02:29:25.187Z,3.92
2022-12-29T02:32:22.828Z,4.70
2022-12-29T02:35:12.455Z,4.55
2022-12-29T02:37:50.984Z,5.38
2022-12-29T02:40:40.701Z,11.23
2022-12-29T02:43:19.993Z,14.43
2022-12-29T02:45:55.814Z,5.35
2022-12-29T02:48:31.559Z,8.48
2022-12-29T02:51:05.381Z,5.47
2022-12-29T02:53:54.027Z,15.93
2022-12-29T02:56:20.768Z,14.25
2022-12-29T02:58:47.345Z,14.25
2022-12-29T03:01:38.895Z,18.73
2022-12-29T03:04:35.055Z,10.63
2022-12-29T03:07:21.287Z,16.70
2022-12-29T03:10:31.592Z,75.70
2022-12-29T03:13:22.454Z,43.33
2022-12-29T03:16:04.780Z,44.28
2022-12-29T03:18:34.352Z,25.65
2022-12-29T03:21:07.465Z,13.63
2022-12-29T03:23:36.034Z,9.80
2022-12-29T03:26:07.982Z,5.03
2022-12-29T03:28:41.883Z,6.15
2022-12-29T03:31:10.253Z,6.43
2022-12-29T03:33:38.942Z,6.03
2022-12-29T03:36:10.737Z,5.22
2022-12-29T03:39:03.182Z,4.63
2022-12-29T03:41:32.928Z,4.68
2022-12-29T03:43:59.524Z,4.43
2022-12-29T03:46:26.143Z,4.80
2022-12-29T03:48:52.784Z,4.20
2022-12-29T03:51:19.242Z,6.13
2022-12-29T03:53:45.871Z,6.68
2022-12-29T03:56:12.318Z,22.83
2022-12-29T03:58:38.823Z,78.47
2022-12-29T04:01:05.305Z,18.73
2022-12-29T04:03:32.248Z,86.15
2022-12-29T04:05:58.948Z,53.83
2022-12-29T04:08:25.520Z,9.48
2022-12-29T04:10:52.045Z,11.25
2022-12-29T04:13:18.511Z,26.52
2022-12-29T04:15:46.184Z,13.15
2022-12-29T04:18:13.501Z,7.63
2022-12-29T04:20:58.612Z,14.68
2022-12-29T04:23:25.129Z,15.50
2022-12-29T04:25:54.043Z,16.52
2022-12-29T04:28:25.353Z,20.67
2022-12-29T04:30:52.109Z,7.90
2022-12-29T04:33:19.290Z,6.35
2022-12-29T04:35:46.665Z,7.88
2022-12-29T04:38:13.997Z,6.32
2022-12-29T04:40:42.157Z,5.40
2022-12-29T04:43:08.758Z,7.78
2022-12-29T04:45:35.333Z,8.88
2022-12-29T04:48:02.151Z,7.90
2022-12-29T04:50:31.879Z,6.80
2022-12-29T04:52:58.356Z,9.88
2022-12-29T04:55:24.816Z,37.97
2022-12-29T04:57:51.362Z,90.57
2022-12-29T05:00:20.430Z,56.33
2022-12-29T05:02:47.297Z,40.53
2022-12-29T05:05:14.014Z,29.58
2022-12-29T05:07:41.545Z,25.95
2022-12-29T05:10:09.128Z,21.33
2022-12-29T05:12:37.099Z,26.23
2022-12-29T05:15:04.985Z,7.97
2022-12-29T05:17:31.661Z,15.55
2022-12-29T05:19:58.111Z,12.07
2022-12-29T05:22:24.574Z,10.95
2022-12-29T05:24:51.241Z,20.42
2022-12-29T05:27:17.711Z,30.65
2022-12-29T05:29:44.297Z,37.08
2022-12-29T05:32:10.766Z,17.48
2022-12-29T05:34:39.588Z,9.55
2022-12-29T05:37:06.180Z,9.40
2022-12-29T05:39:32.636Z,21.77
2022-12-29T05:41:59.397Z,15.05
2022-12-29T05:44:25.962Z,5.75
2022-12-29T05:46:52.519Z,6.20
2022-12-29T05:49:19.143Z,7.22
2022-12-29T05:51:45.662Z,15.10
2022-12-29T05:54:12.194Z,7.68
2022-12-29T05:56:38.679Z,4.22
2022-12-29T05:59:05.207Z,5.60
2022-12-29T06:01:31.794Z,11.48
2022-12-29T06:03:58.426Z,5.90
2022-12-29T06:06:24.993Z,4.88
2022-12-29T06:08:51.542Z,4.47
2022-12-29T06:11:18.027Z,4.38
2022-12-29T06:13:44.512Z,4.97
2022-12-29T06:16:11.081Z,4.10
2022-12-29T06:18:37.658Z,4.72
2022-12-29T06:21:05.851Z,5.15
2022-12-29T06:23:32.422Z,3.60
2022-12-29T06:25:58.911Z,5.10
2022-12-29T06:28:25.438Z,4.70
2022-12-29T06:30:54.063Z,5.22
2022-12-29T06:33:20.669Z,6.10
2022-12-29T06:35:47.254Z,5.50
2022-12-29T06:38:16.329Z,6.03
2022-12-29T06:40:46.973Z,6.97
2022-12-29T06:43:13.557Z,5.07
2022-12-29T06:45:41.475Z,9.68
2022-12-29T06:48:08.696Z,7.57
2022-12-29T06:50:35.508Z,10.60
2022-12-29T06:53:02.109Z,5.22
2022-12-29T06:55:29.218Z,12.00
2022-12-29T06:57:57.242Z,6.53
2022-12-29T07:00:25.317Z,5.97
2022-12-29T07:02:52.165Z,5.85
2022-12-29T07:05:19.160Z,5.70
2022-12-29T07:07:47.983Z,7.10
2022-12-29T07:10:14.465Z,14.73
2022-12-29T07:12:40.949Z,14.45
2022-12-29T07:15:08.077Z,16.73
2022-12-29T07:17:34.597Z,16.15
2022-12-29T07:20:01.079Z,11.52
2022-12-29T07:22:27.573Z,7.72
2022-12-29T07:24:54.129Z,8.40
2022-12-29T07:27:20.645Z,6.57
2022-12-29T07:29:47.181Z,4.80
2022-12-29T07:32:13.722Z,4.35
2022-12-29T07:34:40.755Z,4.25
2022-12-29T07:37:07.569Z,5.13
2022-12-29T07:39:36.496Z,7.25
2022-12-29T07:42:05.269Z,6.57
2022-12-29T07:44:32.056Z,6.75
2022-12-29T07:46:58.825Z,7.70
2022-12-29T07:49:28.066Z,12.68
2022-12-29T07:51:56.839Z,6.20
2022-12-29T07:54:24.315Z,9.70
2022-12-29T07:56:51.228Z,9.07
2022-12-29T07:59:17.695Z,8.70
2022-12-29T08:01:44.329Z,4.63
2022-12-29T08:04:10.933Z,18.30
2022-12-29T08:06:38.778Z,10.80
2022-12-29T08:09:13.422Z,10.75
2022-12-29T08:11:44.252Z,7.93
2022-12-29T08:14:10.905Z,9.60
2022-12-29T08:16:37.457Z,8.98
2022-12-29T08:19:05.987Z,12.73
2022-12-29T08:21:32.629Z,20.67
2022-12-29T08:24:00.057Z,57.80
2022-12-29T08:26:26.732Z,66.13
2022-12-29T08:28:54.496Z,57.85
2022-12-29T08:31:21.105Z,23.50
2022-12-29T08:33:47.685Z,18.42
2022-12-29T08:36:14.215Z,14.75
2022-12-29T08:38:40.994Z,13.27
2022-12-29T08:41:09.719Z,16.80
2022-12-29T08:43:36.164Z,9.75
2022-12-29T08:46:02.899Z,10.75
2022-12-29T08:48:29.503Z,8.65
2022-12-29T08:50:56.016Z,55.30
2022-12-29T08:53:22.532Z,67.28
2022-12-29T08:56:02.416Z,50.22
2022-12-29T08:58:30.949Z,46.88
2022-12-29T09:00:58.415Z,36.05
2022-12-29T09:03:54.599Z,70.40
2022-12-29T09:06:12.409Z,32.50
2022-12-29T09:08:39.476Z,27.23
2022-12-29T09:11:24.092Z,23.48
2022-12-29T09:13:53.629Z,41.15
2022-12-29T09:16:22.702Z,25.98
2022-12-29T09:18:49.313Z,14.88
2022-12-29T09:21:16.294Z,35.05
2022-12-29T09:23:45.623Z,22.50
2022-12-29T09:26:12.205Z,15.93
2022-12-29T09:28:39.401Z,25.27
2022-12-29T09:31:06.418Z,43.25
2022-12-29T09:33:35.802Z,54.03
2022-12-29T09:36:03.721Z,70.18
2022-12-29T09:38:30.529Z,44.30
2022-12-29T09:41:50.755Z,51.00
2022-12-29T09:44:26.423Z,63.35
2022-12-29T09:46:56.444Z,61.30
2022-12-29T09:49:29.561Z,58.33
2022-12-29T09:52:04.595Z,34.30
2022-12-29T09:54:41.850Z,36.20
2022-12-29T09:57:33.333Z,34.58
2022-12-29T10:00:21.745Z,30.77
2022-12-29T10:03:00.884Z,27.05
2022-12-29T10:05:40.408Z,19.30
2022-12-29T10:08:25.324Z,14.00
2022-12-29T10:10:57.678Z,8.68
2022-12-29T10:13:38.364Z,7.72
2022-12-29T10:16:21.318Z,9.63
2022-12-29T10:19:06.347Z,9.60
2022-12-29T10:21:43.402Z,8.57
2022-12-29T10:24:13.379Z,6.72
2022-12-29T10:26:44.960Z,7.13
2022-12-29T10:29:20.507Z,13.20
2022-12-29T10:31:56.159Z,7.32
2022-12-29T10:34:22.912Z,6.10
2022-12-29T10:36:57.013Z,5.65
2022-12-29T10:39:55.004Z,3.47
2022-12-29T10:42:43.679Z,6.07
2022-12-29T10:45:18.849Z,3.60
2022-12-29T10:48:00.958Z,3.65
2022-12-29T10:50:30.071Z,4.15
2022-12-29T10:53:01.689Z,3.95
2022-12-29T10:55:40.565Z,4.13
2022-12-29T10:58:11.632Z,6.82
2022-12-29T11:00:38.257Z,4.40
2022-12-29T11:03:38.695Z,4.60
2022-12-29T11:06:12.881Z,12.57
2022-12-29T11:08:46.439Z,16.08
2022-12-29T11:11:25.164Z,12.43
2022-12-29T11:13:59.177Z,19.42
2022-12-29T11:16:32.038Z,9.90
2022-12-29T11:19:02.116Z,60.10
2022-12-29T11:21:34.410Z,44.25
2022-12-29T11:24:04.935Z,5.35
2022-12-29T11:26:35.168Z,5.65
2022-12-29T11:29:17.210Z,4.57
2022-12-29T11:31:56.172Z,4.53
2022-12-29T11:34:24.758Z,3.22
2022-12-29T11:36:58.882Z,5.60
2022-12-29T11:39:34.039Z,6.97
2022-12-29T11:42:03.428Z,5.85
2022-12-29T11:44:37.112Z,7.43
2022-12-29T11:47:04.451Z,6.93
2022-12-29T11:49:31.142Z,5.75
2022-12-29T11:51:57.951Z,4.18
2022-12-29T11:54:34.907Z,4.30
2022-12-29T11:57:13.082Z,8.40
2022-12-29T11:59:43.671Z,5.82
2022-12-29T12:02:43.822Z,5.85
2022-12-29T12:05:22.435Z,5.75
2022-12-29T12:08:18.952Z,5.43
2022-12-29T12:10:55.364Z,6.18
2022-12-29T12:13:32.835Z,5.50
2022-12-29T12:16:48.312Z,4.28
2022-12-29T12:19:36.661Z,4.68
2022-12-29T12:22:21.051Z,4.75
2022-12-29T12:24:56.009Z,2.10
2022-12-29T12:27:48.701Z,6.13
2022-12-29T12:30:21.642Z,2.63
2022-12-29T12:33:06.346Z,3.57
2022-12-29T12:35:46.887Z,4.65
2022-12-29T12:38:28.478Z,4.18
2022-12-29T12:40:57.988Z,2.58
2022-12-29T12:43:33.733Z,3.33
2022-12-29T12:46:25.332Z,2.38
2022-12-29T12:49:17.841Z,4.32
2022-12-29T12:51:53.228Z,2.42
2022-12-29T12:54:38.081Z,4.90
2022-12-29T12:57:16.644Z,7.00
2022-12-29T12:59:59.330Z,4.63
2022-12-29T13:03:06.246Z,5.05
2022-12-29T13:05:53.978Z,9.68
2022-12-29T13:09:01.958Z,7.07
2022-12-29T13:11:54.562Z,5.28
2022-12-29T13:14:44.700Z,9.75
2022-12-29T13:17:11.268Z,11.10
2022-12-29T13:20:01.050Z,10.02
2022-12-29T13:22:44.125Z,6.88
2022-12-29T13:25:16.752Z,5.63
2022-12-29T13:27:57.079Z,6.30
2022-12-29T13:30:32.955Z,6.18
2022-12-29T13:33:08.230Z,5.15
2022-12-29T13:35:47.824Z,8.32
2022-12-29T13:38:40.631Z,11.18
2022-12-29T13:41:12.311Z,8.23
2022-12-29T13:43:41.457Z,8.13
2022-12-29T13:46:15.191Z,10.30
2022-12-29T13:51:13.691Z,5.35
2022-12-29T13:53:59.183Z,4.68
2022-12-29T13:56:43.723Z,7.65
2022-12-29T13:59:22.141Z,2.92
2022-12-29T14:01:59.951Z,2.25
2022-12-29T14:04:34.083Z,4.45
2022-12-29T14:07:15.832Z,3.78
2022-12-29T14:09:51.925Z,3.60
2022-12-29T14:12:41.742Z,2.88
2022-12-29T14:15:11.367Z,4.63
2022-12-29T14:17:39.422Z,5.35
2022-12-29T14:20:17.977Z,4.75
2022-12-29T14:23:09.795Z,5.05
2022-12-29T14:26:01.389Z,10.75
2022-12-29T14:28:33.101Z,25.92
2022-12-29T14:31:01.672Z,34.10
2022-12-29T14:33:31.452Z,22.00
2022-12-29T14:36:18.335Z,12.05
2022-12-29T14:38:48.843Z,9.90
2022-12-29T14:41:25.285Z,6.50
2022-12-29T14:44:11.180Z,7.93
2022-12-29T14:46:46.931Z,6.93
2022-12-29T14:49:21.482Z,5.78
2022-12-29T14:51:49.315Z,3.95
2022-12-29T14:54:34.339Z,5.97
2022-12-29T14:57:11.199Z,6.45
2022-12-29T14:59:37.764Z,5.22
2022-12-29T15:02:16.917Z,4.00
2022-12-29T15:04:47.308Z,4.88
2022-12-29T15:07:15.266Z,3.25
2022-12-29T15:09:50.264Z,4.10
2022-12-29T15:12:40.820Z,3.97
2022-12-29T15:15:18.056Z,11.20
2022-12-29T15:17:44.569Z,14.20
2022-12-29T15:20:24.981Z,15.65
2022-12-29T15:23:12.945Z,29.40
2022-12-29T15:25:50.648Z,19.23
2022-12-29T15:28:18.162Z,10.73
2022-12-29T15:30:56.136Z,19.98
2022-12-29T15:33:24.817Z,17.92
2022-12-29T15:35:52.862Z,21.45
2022-12-29T15:38:34.585Z,25.50
2022-12-29T15:41:25.976Z,26.25
2022-12-29T15:44:00.670Z,38.22
2022-12-29T15:46:30.917Z,76.60
2022-12-29T15:48:57.737Z,56.70
2022-12-29T15:51:34.421Z,54.22
2022-12-29T15:54:01.352Z,76.10
2022-12-29T15:56:32.497Z,64.88
2022-12-29T15:59:02.171Z,62.88
2022-12-29T16:01:34.703Z,60.35
2022-12-29T16:04:05.454Z,60.83
2022-12-29T16:06:39.115Z,55.63
2022-12-29T16:09:17.368Z,62.58
2022-12-29T16:12:02.396Z,47.95
2022-12-29T16:14:40.980Z,32.80
2022-12-29T16:17:13.472Z,32.95
2022-12-29T16:19:42.028Z,26.80
2022-12-29T16:22:18.496Z,20.25
2022-12-29T16:24:46.741Z,22.33
2022-12-29T16:27:28.162Z,22.77
2022-12-29T16:29:56.283Z,27.13
2022-12-29T16:32:31.471Z,30.65
2022-12-29T16:35:17.471Z,32.15
2022-12-29T16:37:44.044Z,32.30
2022-12-29T16:40:20.612Z,30.63
2022-12-29T16:42:51.940Z,50.67
2022-12-29T16:45:22.346Z,27.88
2022-12-29T16:48:07.305Z,26.50
2022-12-29T16:50:36.218Z,38.60
2022-12-29T16:53:04.310Z,49.10
2022-12-29T16:55:31.703Z,47.65
2022-12-29T16:58:00.134Z,49.30
2022-12-29T17:00:29.849Z,52.55
2022-12-29T17:03:01.000Z,53.85
2022-12-29T17:05:27.637Z,47.10
2022-12-29T17:07:54.281Z,46.22
2022-12-29T17:10:20.828Z,43.03
2022-12-29T17:12:49.377Z,46.15
2022-12-29T17:15:25.780Z,37.53
2022-12-29T17:17:55.715Z,42.30
2022-12-29T17:20:30.861Z,40.08
2022-12-29T17:22:59.202Z,41.70
2022-12-29T17:25:39.283Z,44.13
2022-12-29T17:28:28.453Z,42.83
2022-12-29T17:31:00.721Z,34.42
2022-12-29T17:33:31.159Z,27.85
2022-12-29T17:35:57.709Z,34.78
2022-12-29T17:38:30.325Z,32.90
2022-12-29T17:40:57.221Z,35.45
2022-12-29T17:43:23.885Z,48.30
2022-12-29T17:45:55.352Z,50.53
2022-12-29T17:48:23.350Z,35.75
2022-12-29T17:50:52.612Z,16.95
2022-12-29T17:53:22.687Z,12.05
2022-12-29T17:55:49.198Z,13.00
2022-12-29T17:58:18.526Z,12.05
2022-12-29T18:00:48.356Z,8.90
2022-12-29T18:03:17.777Z,11.18
2022-12-29T18:05:45.073Z,13.45
2022-12-29T18:08:14.191Z,45.67
2022-12-29T18:10:40.872Z,77.97
2022-12-29T18:13:07.670Z,37.17
2022-12-29T18:15:36.452Z,21.90
2022-12-29T18:18:18.712Z,15.80
2022-12-29T18:20:48.936Z,11.65
2022-12-29T18:23:21.412Z,10.13
2022-12-29T18:25:53.051Z,14.18
2022-12-29T18:28:24.083Z,9.10
2022-12-29T18:30:51.149Z,8.43
2022-12-29T18:33:23.328Z,8.93
2022-12-29T18:36:04.327Z,11.93
2022-12-29T18:38:31.880Z,12.70
2022-12-29T18:41:00.700Z,13.05
2022-12-29T18:43:27.545Z,13.27
2022-12-29T18:45:53.986Z,14.73
2022-12-29T18:48:21.561Z,17.30
2022-12-29T18:50:51.091Z,17.15
2022-12-29T18:53:21.620Z,24.00
2022-12-29T18:55:50.381Z,23.42
2022-12-29T18:58:16.971Z,23.02
2022-12-29T19:00:44.604Z,25.48
2022-12-29T19:03:16.979Z,24.27
2022-12-29T19:05:46.055Z,28.15
2022-12-29T19:08:12.962Z,24.58
2022-12-29T19:10:43.271Z,19.42
2022-12-29T19:13:23.679Z,22.23
2022-12-29T19:15:50.216Z,20.20
2022-12-29T19:21:06.697Z,22.50
2022-12-29T19:23:33.364Z,23.83
2022-12-29T19:25:59.882Z,25.98
2022-12-29T19:28:29.019Z,19.27
2022-12-29T19:31:00.059Z,21.85
2022-12-29T19:33:27.099Z,16.77
2022-12-29T19:35:59.490Z,16.45
2022-12-29T19:38:25.951Z,12.20
2022-12-29T19:40:52.421Z,8.95
2022-12-29T19:43:19.356Z,7.95
2022-12-29T19:45:48.132Z,11.25
2022-12-29T19:48:17.365Z,11.00
2022-12-29T19:50:46.691Z,11.70
2022-12-29T19:53:16.445Z,13.73
2022-12-29T19:55:46.838Z,20.88
2022-12-29T19:58:14.150Z,22.30
2022-12-29T20:00:42.111Z,17.67
2022-12-29T20:03:09.051Z,21.10
2022-12-29T20:05:35.802Z,21.05
2022-12-29T20:08:04.569Z,22.98
2022-12-29T20:10:31.136Z,29.23
2022-12-29T20:12:57.642Z,30.38
2022-12-29T20:15:24.224Z,25.35
2022-12-29T20:20:37.262Z,33.55
2022-12-29T20:23:03.888Z,23.75
2022-12-29T20:25:48.658Z,18.92
2022-12-29T20:28:15.936Z,19.08
2022-12-29T20:30:43.356Z,26.50
2022-12-29T20:33:10.184Z,19.35
2022-12-29T20:35:37.308Z,18.10
2022-12-29T20:38:04.493Z,18.73
2022-12-29T20:40:31.071Z,13.07
2022-12-29T20:42:57.564Z,15.48
2022-12-29T20:45:24.446Z,13.43
2022-12-29T20:47:51.060Z,11.98
2022-12-29T20:50:17.526Z,12.10
2022-12-29T20:52:44.148Z,13.20
2022-12-29T20:55:10.696Z,13.82
2022-12-29T20:57:57.528Z,11.68
2022-12-29T21:00:23.889Z,13.82
2022-12-29T21:02:50.635Z,16.35
2022-12-29T21:05:25.712Z,13.60
2022-12-29T21:07:54.059Z,13.35
2022-12-29T21:10:20.903Z,19.05
2022-12-29T21:12:48.367Z,12.52
2022-12-29T21:15:15.810Z,17.80
2022-12-29T21:17:43.452Z,17.70
2022-12-29T21:20:20.038Z,13.85
2022-12-29T21:22:47.629Z,18.27
2022-12-29T21:25:14.833Z,14.68
2022-12-29T21:27:44.803Z,8.00
2022-12-29T21:30:12.159Z,9.70
2022-12-29T21:32:39.406Z,8.68
2022-12-29T21:35:07.099Z,12.90
2022-12-29T21:37:36.469Z,28.00
2022-12-29T21:40:04.550Z,91.30
2022-12-29T21:42:31.117Z,30.83
2022-12-29T21:45:20.906Z,47.08
2022-12-29T21:48:08.726Z,63.63
2022-12-29T21:51:01.816Z,23.13
2022-12-29T21:53:40.083Z,16.92
2022-12-29T21:56:18.192Z,10.65
2022-12-29T21:59:08.419Z,11.90
2022-12-29T22:01:56.555Z,53.85
2022-12-29T22:04:44.241Z,39.70
2022-12-29T22:07:32.580Z,33.25
2022-12-29T22:10:19.918Z,41.28
2022-12-29T22:13:01.672Z,34.05
2022-12-29T22:15:32.276Z,18.77
2022-12-29T22:18:00.706Z,119.85
2022-12-29T22:20:31.268Z,70.55
2022-12-29T22:22:57.883Z,40.55
2022-12-29T22:25:24.790Z,57.17
2022-12-29T22:27:58.631Z,36.22
2022-12-29T22:30:26.513Z,22.50
2022-12-29T22:32:53.100Z,27.10
2022-12-29T22:35:19.685Z,29.98
2022-12-29T22:37:46.242Z,35.22
2022-12-29T22:40:12.988Z,28.30
2022-12-29T22:42:39.548Z,22.48
2022-12-29T22:45:07.125Z,24.92
2022-12-29T22:47:34.071Z,19.50
2022-12-29T22:50:00.722Z,20.42
2022-12-29T22:52:27.409Z,21.95
2022-12-29T22:54:53.947Z,20.70
2022-12-29T22:57:20.455Z,24.50
2022-12-29T22:59:46.956Z,28.92
2022-12-29T23:02:13.534Z,27.30
2022-12-29T23:05:02.874Z,23.95
2022-12-29T23:07:26.658Z,20.38
2022-12-29T23:09:53.083Z,20.23
2022-12-29T23:12:19.620Z,18.60
2022-12-29T23:14:46.092Z,18.38
2022-12-29T23:17:12.542Z,14.98
2022-12-29T23:19:39.019Z,13.73
2022-12-29T23:22:07.858Z,25.98
2022-12-29T23:24:34.312Z,14.45
2022-12-29T23:27:00.745Z,18.10
2022-12-29T23:29:27.199Z,10.45
2022-12-29T23:31:53.779Z,8.98
2022-12-29T23:34:22.574Z,8.88
2022-12-29T23:36:50.901Z,8.25
2022-12-29T23:39:23.420Z,9.00
2022-12-29T23:41:50.752Z,11.50
2022-12-29T23:44:19.509Z,13.45
2022-12-29T23:46:46.260Z,15.10
2022-12-29T23:49:12.791Z,15.07
2022-12-29T23:51:41.801Z,13.30
2022-12-29T23:54:08.274Z,14.25
2022-12-29T23:56:34.749Z,12.18
2022-12-29T23:59:05.001Z,15.80
